sensor_id;sensor_type;location;lat;lon;timestamp;temperature;humidity
16999;DHT22;10211;49.476;11.010;2023-04-01T00:01:27;8.40;99.90
16999;DHT22;10211;49.476;11.010;2023-04-01T00:03:53;8.60;99.90
16999;DHT22;10211;49.476;11.010;2023-04-01T00:06:22;8.70;99.90
16999;DHT22;10211;49.476;11.010;2023-04-01T00:08:48;8.70;99.90
16999;DHT22;10211;49.476;11.010;2023-04-01T00:11:15;8.80;99.90
16999;DHT22;10211;49.476;11.010;2023-04-01T00:13:43;8.80;99.90
16999;DHT22;10211;49.476;11.010;2023-04-01T00:16:11;8.90;99.90
16999;DHT22;10211;49.476;11.010;2023-04-01T00:18:38;9.00;99.90
16999;DHT22;10211;49.476;11.010;2023-04-01T00:21:06;9.00;99.90
16999;DHT22;10211;49.476;11.010;2023-04-01T00:23:32;9.00;99.90
16999;DHT22;10211;49.476;11.010;2023-04-01T00:25:59;9.00;99.90
16999;DHT22;10211;49.476;11.010;2023-04-01T00:28:27;9.00;99.90
16999;DHT22;10211;49.476;11.010;2023-04-01T00:30:54;9.00;99.90
16999;DHT22;10211;49.476;11.010;2023-04-01T00:33:22;9.10;99.90
16999;DHT22;10211;49.476;11.010;2023-04-01T00:35:49;9.10;99.90
16999;DHT22;10211;49.476;11.010;2023-04-01T00:38:15;9.10;99.90
16999;DHT22;10211;49.476;11.010;2023-04-01T00:40:45;9.10;99.90
16999;DHT22;10211;49.476;11.010;2023-04-01T00:43:15;9.10;99.90
16999;DHT22;10211;49.476;11.010;2023-04-01T00:45:44;9.10;99.90
16999;DHT22;10211;49.476;11.010;2023-04-01T00:48:16;9.10;99.90
16999;DHT22;10211;49.476;11.010;2023-04-01T00:50:48;9.10;99.90
16999;DHT22;10211;49.476;11.010;2023-04-01T00:53:16;9.10;99.90
16999;DHT22;10211;49.476;11.010;2023-04-01T00:55:49;9.10;99.90
16999;DHT22;10211;49.476;11.010;2023-04-01T00:58:18;9.20;99.90
16999;DHT22;10211;49.476;11.010;2023-04-01T01:00:49;9.20;99.90
16999;DHT22;10211;49.476;11.010;2023-04-01T01:03:17;9.20;99.90
16999;DHT22;10211;49.476;11.010;2023-04-01T01:05:55;9.20;99.90
16999;DHT22;10211;49.476;11.010;2023-04-01T01:08:34;9.20;99.90
16999;DHT22;10211;49.476;11.010;2023-04-01T01:11:08;9.20;99.90
16999;DHT22;10211;49.476;11.010;2023-04-01T01:13:43;9.20;99.90
16999;DHT22;10211;49.476;11.010;2023-04-01T01:16:17;9.20;99.90
16999;DHT22;10211;49.476;11.010;2023-04-01T01:18:47;9.20;99.90
16999;DHT22;10211;49.476;11.010;2023-04-01T01:21:43;9.20;99.90
16999;DHT22;10211;49.476;11.010;2023-04-01T01:24:22;9.20;99.90
16999;DHT22;10211;49.476;11.010;2023-04-01T01:26:57;9.20;99.90
16999;DHT22;10211;49.476;11.010;2023-04-01T01:29:42;9.20;99.90
16999;DHT22;10211;49.476;11.010;2023-04-01T01:32:19;9.20;99.90
16999;DHT22;10211;49.476;11.010;2023-04-01T01:34:52;9.20;99.90
16999;DHT22;10211;49.476;11.010;2023-04-01T01:37:23;9.20;99.90
16999;DHT22;10211;49.476;11.010;2023-04-01T01:39:54;9.20;99.90
16999;DHT22;10211;49.476;11.010;2023-04-01T01:42:24;9.10;99.90
16999;DHT22;10211;49.476;11.010;2023-04-01T01:44:52;9.10;99.90
16999;DHT22;10211;49.476;11.010;2023-04-01T01:47:22;9.10;99.90
16999;DHT22;10211;49.476;11.010;2023-04-01T01:49:51;9.10;99.90
16999;DHT22;10211;49.476;11.010;2023-04-01T01:52:18;9.10;99.90
16999;DHT22;10211;49.476;11.010;2023-04-01T01:54:50;9.10;99.90
16999;DHT22;10211;49.476;11.010;2023-04-01T01:57:22;9.10;99.90
16999;DHT22;10211;49.476;11.010;2023-04-01T01:59:50;9.00;99.90
16999;DHT22;10211;49.476;11.010;2023-04-01T02:02:19;9.10;99.90
16999;DHT22;10211;49.476;11.010;2023-04-01T02:04:47;9.10;99.90
16999;DHT22;10211;49.476;11.010;2023-04-01T02:07:20;9.10;99.90
16999;DHT22;10211;49.476;11.010;2023-04-01T02:09:49;9.10;99.90
16999;DHT22;10211;49.476;11.010;2023-04-01T02:12:18;9.10;99.90
16999;DHT22;10211;49.476;11.010;2023-04-01T02:14:50;9.10;99.90
16999;DHT22;10211;49.476;11.010;2023-04-01T02:17:19;9.10;99.90
16999;DHT22;10211;49.476;11.010;2023-04-01T02:19:50;9.10;99.90
16999;DHT22;10211;49.476;11.010;2023-04-01T02:22:20;9.10;99.90
16999;DHT22;10211;49.476;11.010;2023-04-01T02:24:50;9.10;99.90
16999;DHT22;10211;49.476;11.010;2023-04-01T02:27:19;9.10;99.90
16999;DHT22;10211;49.476;11.010;2023-04-01T02:29:46;9.10;99.90
16999;DHT22;10211;49.476;11.010;2023-04-01T02:32:13;9.10;99.90
16999;DHT22;10211;49.476;11.010;2023-04-01T02:34:41;9.10;99.90
16999;DHT22;10211;49.476;11.010;2023-04-01T02:37:08;9.10;99.90
16999;DHT22;10211;49.476;11.010;2023-04-01T02:39:36;9.10;99.90
16999;DHT22;10211;49.476;11.010;2023-04-01T02:42:04;9.20;99.90
16999;DHT22;10211;49.476;11.010;2023-04-01T02:44:31;9.10;99.90
16999;DHT22;10211;49.476;11.010;2023-04-01T02:46:58;9.20;99.90
16999;DHT22;10211;49.476;11.010;2023-04-01T02:49:25;9.10;99.90
16999;DHT22;10211;49.476;11.010;2023-04-01T02:51:51;9.10;99.90
16999;DHT22;10211;49.476;11.010;2023-04-01T02:54:18;9.10;99.90
16999;DHT22;10211;49.476;11.010;2023-04-01T02:56:45;9.10;99.90
16999;DHT22;10211;49.476;11.010;2023-04-01T02:59:13;9.10;99.90
16999;DHT22;10211;49.476;11.010;2023-04-01T03:01:40;9.10;99.90
16999;DHT22;10211;49.476;11.010;2023-04-01T03:04:07;9.10;99.90
16999;DHT22;10211;49.476;11.010;2023-04-01T03:06:33;9.00;99.90
16999;DHT22;10211;49.476;11.010;2023-04-01T03:09:00;9.00;99.90
16999;DHT22;10211;49.476;11.010;2023-04-01T03:11:27;9.00;99.90
16999;DHT22;10211;49.476;11.010;2023-04-01T03:13:55;9.00;99.90
16999;DHT22;10211;49.476;11.010;2023-04-01T03:16:23;9.00;99.90
16999;DHT22;10211;49.476;11.010;2023-04-01T03:18:49;9.00;99.90
16999;DHT22;10211;49.476;11.010;2023-04-01T03:21:19;9.10;99.90
16999;DHT22;10211;49.476;11.010;2023-04-01T03:23:46;9.10;99.90
16999;DHT22;10211;49.476;11.010;2023-04-01T03:26:13;9.10;99.90
16999;DHT22;10211;49.476;11.010;2023-04-01T03:28:40;9.10;99.90
16999;DHT22;10211;49.476;11.010;2023-04-01T03:31:07;9.10;99.90
16999;DHT22;10211;49.476;11.010;2023-04-01T03:33:35;9.10;99.90
16999;DHT22;10211;49.476;11.010;2023-04-01T03:36:02;9.00;99.90
16999;DHT22;10211;49.476;11.010;2023-04-01T03:38:31;9.00;99.90
16999;DHT22;10211;49.476;11.010;2023-04-01T03:40:58;9.00;99.90
16999;DHT22;10211;49.476;11.010;2023-04-01T03:43:25;8.90;99.90
16999;DHT22;10211;49.476;11.010;2023-04-01T03:45:52;8.90;99.90
16999;DHT22;10211;49.476;11.010;2023-04-01T03:48:20;8.90;99.90
16999;DHT22;10211;49.476;11.010;2023-04-01T03:50:48;8.90;99.90
16999;DHT22;10211;49.476;11.010;2023-04-01T03:53:15;8.90;99.90
16999;DHT22;10211;49.476;11.010;2023-04-01T03:55:41;8.90;99.90
16999;DHT22;10211;49.476;11.010;2023-04-01T03:58:08;9.00;99.90
16999;DHT22;10211;49.476;11.010;2023-04-01T04:00:35;9.00;99.90
16999;DHT22;10211;49.476;11.010;2023-04-01T04:03:02;9.10;99.90
16999;DHT22;10211;49.476;11.010;2023-04-01T04:05:29;9.10;99.90
16999;DHT22;10211;49.476;11.010;2023-04-01T04:07:57;9.10;99.90
16999;DHT22;10211;49.476;11.010;2023-04-01T04:10:24;9.10;99.90
16999;DHT22;10211;49.476;11.010;2023-04-01T04:12:52;9.10;99.90
16999;DHT22;10211;49.476;11.010;2023-04-01T04:15:19;9.10;99.90
16999;DHT22;10211;49.476;11.010;2023-04-01T04:17:46;9.10;99.90
16999;DHT22;10211;49.476;11.010;2023-04-01T04:20:13;9.10;99.90
16999;DHT22;10211;49.476;11.010;2023-04-01T04:22:40;9.00;99.90
16999;DHT22;10211;49.476;11.010;2023-04-01T04:25:08;9.10;99.90
16999;DHT22;10211;49.476;11.010;2023-04-01T04:27:35;9.10;99.90
16999;DHT22;10211;49.476;11.010;2023-04-01T04:30:03;9.10;99.90
16999;DHT22;10211;49.476;11.010;2023-04-01T04:32:30;9.10;99.90
16999;DHT22;10211;49.476;11.010;2023-04-01T04:34:57;9.10;99.90
16999;DHT22;10211;49.476;11.010;2023-04-01T04:37:23;9.10;99.90
16999;DHT22;10211;49.476;11.010;2023-04-01T04:39:51;9.10;99.90
16999;DHT22;10211;49.476;11.010;2023-04-01T04:42:19;9.00;99.90
16999;DHT22;10211;49.476;11.010;2023-04-01T04:44:46;9.00;99.90
16999;DHT22;10211;49.476;11.010;2023-04-01T04:47:12;9.00;99.90
16999;DHT22;10211;49.476;11.010;2023-04-01T04:49:39;9.00;99.90
16999;DHT22;10211;49.476;11.010;2023-04-01T04:52:06;8.90;99.90
16999;DHT22;10211;49.476;11.010;2023-04-01T04:54:33;8.90;99.90
16999;DHT22;10211;49.476;11.010;2023-04-01T04:56:59;8.90;99.90
16999;DHT22;10211;49.476;11.010;2023-04-01T04:59:27;8.90;99.90
16999;DHT22;10211;49.476;11.010;2023-04-01T05:01:54;8.90;99.90
16999;DHT22;10211;49.476;11.010;2023-04-01T05:04:21;8.90;99.90
16999;DHT22;10211;49.476;11.010;2023-04-01T05:06:48;8.80;99.90
16999;DHT22;10211;49.476;11.010;2023-04-01T05:09:15;8.90;99.90
16999;DHT22;10211;49.476;11.010;2023-04-01T05:11:41;8.80;99.90
16999;DHT22;10211;49.476;11.010;2023-04-01T05:14:12;8.80;99.90
16999;DHT22;10211;49.476;11.010;2023-04-01T05:16:40;8.80;99.90
16999;DHT22;10211;49.476;11.010;2023-04-01T05:19:07;8.80;99.90
16999;DHT22;10211;49.476;11.010;2023-04-01T05:21:33;8.80;99.90
16999;DHT22;10211;49.476;11.010;2023-04-01T05:24:00;8.80;99.90
16999;DHT22;10211;49.476;11.010;2023-04-01T05:26:27;8.80;99.90
16999;DHT22;10211;49.476;11.010;2023-04-01T05:28:54;8.80;99.90
16999;DHT22;10211;49.476;11.010;2023-04-01T05:31:20;8.90;99.90
16999;DHT22;10211;49.476;11.010;2023-04-01T05:33:50;8.90;99.90
16999;DHT22;10211;49.476;11.010;2023-04-01T05:36:17;8.90;99.90
16999;DHT22;10211;49.476;11.010;2023-04-01T05:38:44;8.90;99.90
16999;DHT22;10211;49.476;11.010;2023-04-01T05:41:13;8.90;99.90
16999;DHT22;10211;49.476;11.010;2023-04-01T05:43:41;8.90;99.90
16999;DHT22;10211;49.476;11.010;2023-04-01T05:46:08;9.00;99.90
16999;DHT22;10211;49.476;11.010;2023-04-01T05:48:34;9.00;99.90
16999;DHT22;10211;49.476;11.010;2023-04-01T05:51:03;9.00;99.90
16999;DHT22;10211;49.476;11.010;2023-04-01T05:53:30;9.00;99.90
16999;DHT22;10211;49.476;11.010;2023-04-01T05:56:01;9.10;99.90
16999;DHT22;10211;49.476;11.010;2023-04-01T05:58:28;9.10;99.90
16999;DHT22;10211;49.476;11.010;2023-04-01T06:01:00;9.10;99.90
16999;DHT22;10211;49.476;11.010;2023-04-01T06:03:27;9.20;99.90
16999;DHT22;10211;49.476;11.010;2023-04-01T06:05:54;9.30;99.90
16999;DHT22;10211;49.476;11.010;2023-04-01T06:08:22;9.20;99.90
16999;DHT22;10211;49.476;11.010;2023-04-01T06:11:04;9.20;99.90
16999;DHT22;10211;49.476;11.010;2023-04-01T06:16:35;9.40;99.90
16999;DHT22;10211;49.476;11.010;2023-04-01T06:19:18;9.50;99.90
16999;DHT22;10211;49.476;11.010;2023-04-01T06:22:08;9.60;99.90
16999;DHT22;10211;49.476;11.010;2023-04-01T06:27:49;9.60;99.90
16999;DHT22;10211;49.476;11.010;2023-04-01T06:30:40;9.60;99.90
16999;DHT22;10211;49.476;11.010;2023-04-01T06:33:23;9.60;99.90
16999;DHT22;10211;49.476;11.010;2023-04-01T06:36:14;9.80;99.90
16999;DHT22;10211;49.476;11.010;2023-04-01T06:39:01;9.90;99.90
16999;DHT22;10211;49.476;11.010;2023-04-01T06:41:46;9.90;99.90
16999;DHT22;10211;49.476;11.010;2023-04-01T06:44:20;10.00;99.90
16999;DHT22;10211;49.476;11.010;2023-04-01T06:46:57;10.10;99.90
16999;DHT22;10211;49.476;11.010;2023-04-01T06:49:42;10.20;99.90
16999;DHT22;10211;49.476;11.010;2023-04-01T06:52:15;10.20;99.90
16999;DHT22;10211;49.476;11.010;2023-04-01T06:54:48;10.40;99.90
16999;DHT22;10211;49.476;11.010;2023-04-01T06:57:22;10.70;99.90
16999;DHT22;10211;49.476;11.010;2023-04-01T06:59:52;10.90;99.90
16999;DHT22;10211;49.476;11.010;2023-04-01T07:02:25;11.00;99.90
16999;DHT22;10211;49.476;11.010;2023-04-01T07:04:55;10.80;99.90
16999;DHT22;10211;49.476;11.010;2023-04-01T07:07:29;10.80;99.90
16999;DHT22;10211;49.476;11.010;2023-04-01T07:09:59;10.70;99.90
16999;DHT22;10211;49.476;11.010;2023-04-01T07:12:38;10.70;99.90
16999;DHT22;10211;49.476;11.010;2023-04-01T07:15:15;10.80;99.90
16999;DHT22;10211;49.476;11.010;2023-04-01T07:17:43;10.80;99.90
16999;DHT22;10211;49.476;11.010;2023-04-01T07:20:13;11.00;99.90
16999;DHT22;10211;49.476;11.010;2023-04-01T07:22:45;11.10;99.90
16999;DHT22;10211;49.476;11.010;2023-04-01T07:25:15;11.20;99.90
16999;DHT22;10211;49.476;11.010;2023-04-01T07:27:44;11.30;99.90
16999;DHT22;10211;49.476;11.010;2023-04-01T07:30:15;11.30;99.90
16999;DHT22;10211;49.476;11.010;2023-04-01T07:32:45;11.30;99.90
16999;DHT22;10211;49.476;11.010;2023-04-01T07:35:23;11.40;99.90
16999;DHT22;10211;49.476;11.010;2023-04-01T07:38:00;11.50;99.90
16999;DHT22;10211;49.476;11.010;2023-04-01T07:40:34;11.50;99.90
16999;DHT22;10211;49.476;11.010;2023-04-01T07:43:22;11.40;99.90
16999;DHT22;10211;49.476;11.010;2023-04-01T07:45:59;11.20;99.90
16999;DHT22;10211;49.476;11.010;2023-04-01T07:48:32;11.10;99.90
16999;DHT22;10211;49.476;11.010;2023-04-01T07:51:02;11.10;99.90
16999;DHT22;10211;49.476;11.010;2023-04-01T07:53:35;11.10;99.90
16999;DHT22;10211;49.476;11.010;2023-04-01T07:56:06;11.10;99.90
16999;DHT22;10211;49.476;11.010;2023-04-01T07:58:42;11.30;99.90
16999;DHT22;10211;49.476;11.010;2023-04-01T08:01:15;11.50;99.90
16999;DHT22;10211;49.476;11.010;2023-04-01T08:03:56;11.60;99.90
16999;DHT22;10211;49.476;11.010;2023-04-01T08:06:30;11.70;99.90
16999;DHT22;10211;49.476;11.010;2023-04-01T08:09:05;11.50;99.90
16999;DHT22;10211;49.476;11.010;2023-04-01T08:11:54;11.50;99.90
16999;DHT22;10211;49.476;11.010;2023-04-01T08:14:35;11.40;99.90
16999;DHT22;10211;49.476;11.010;2023-04-01T08:17:07;11.60;99.90
16999;DHT22;10211;49.476;11.010;2023-04-01T08:19:48;11.70;99.90
16999;DHT22;10211;49.476;11.010;2023-04-01T08:22:23;11.80;99.90
16999;DHT22;10211;49.476;11.010;2023-04-01T08:24:54;11.70;99.90
16999;DHT22;10211;49.476;11.010;2023-04-01T08:27:28;11.70;99.90
16999;DHT22;10211;49.476;11.010;2023-04-01T08:30:02;11.60;99.90
16999;DHT22;10211;49.476;11.010;2023-04-01T08:32:34;11.70;99.90
16999;DHT22;10211;49.476;11.010;2023-04-01T08:35:08;11.70;99.90
16999;DHT22;10211;49.476;11.010;2023-04-01T08:37:38;11.70;99.90
16999;DHT22;10211;49.476;11.010;2023-04-01T08:40:25;11.80;99.90
16999;DHT22;10211;49.476;11.010;2023-04-01T08:43:05;11.80;99.90
16999;DHT22;10211;49.476;11.010;2023-04-01T08:45:53;11.70;99.90
16999;DHT22;10211;49.476;11.010;2023-04-01T08:48:32;11.70;99.90
16999;DHT22;10211;49.476;11.010;2023-04-01T08:51:34;11.50;99.90
16999;DHT22;10211;49.476;11.010;2023-04-01T08:54:35;11.50;99.90
16999;DHT22;10211;49.476;11.010;2023-04-01T08:57:10;11.50;99.90
16999;DHT22;10211;49.476;11.010;2023-04-01T08:59:50;11.40;99.90
16999;DHT22;10211;49.476;11.010;2023-04-01T09:08:39;11.60;99.90
16999;DHT22;10211;49.476;11.010;2023-04-01T09:11:17;11.70;99.90
16999;DHT22;10211;49.476;11.010;2023-04-01T09:14:13;11.80;99.90
16999;DHT22;10211;49.476;11.010;2023-04-01T09:17:08;11.80;99.90
16999;DHT22;10211;49.476;11.010;2023-04-01T09:20:03;11.90;99.90
16999;DHT22;10211;49.476;11.010;2023-04-01T09:22:50;11.90;99.90
16999;DHT22;10211;49.476;11.010;2023-04-01T09:25:31;12.00;99.90
16999;DHT22;10211;49.476;11.010;2023-04-01T09:28:10;12.00;99.90
16999;DHT22;10211;49.476;11.010;2023-04-01T09:31:07;12.00;99.90
16999;DHT22;10211;49.476;11.010;2023-04-01T09:36:44;12.00;99.90
16999;DHT22;10211;49.476;11.010;2023-04-01T09:39:25;12.00;99.90
16999;DHT22;10211;49.476;11.010;2023-04-01T09:42:14;12.00;99.90
16999;DHT22;10211;49.476;11.010;2023-04-01T09:44:48;12.10;99.90
16999;DHT22;10211;49.476;11.010;2023-04-01T09:47:30;11.90;99.90
16999;DHT22;10211;49.476;11.010;2023-04-01T09:50:31;11.90;99.90
16999;DHT22;10211;49.476;11.010;2023-04-01T09:53:14;12.00;99.90
16999;DHT22;10211;49.476;11.010;2023-04-01T09:56:10;12.00;99.90
16999;DHT22;10211;49.476;11.010;2023-04-01T09:59:23;11.90;99.90
16999;DHT22;10211;49.476;11.010;2023-04-01T10:02:08;11.60;99.90
16999;DHT22;10211;49.476;11.010;2023-04-01T10:05:04;11.30;99.90
16999;DHT22;10211;49.476;11.010;2023-04-01T10:10:58;11.20;99.90
16999;DHT22;10211;49.476;11.010;2023-04-01T10:14:07;11.50;99.90
16999;DHT22;10211;49.476;11.010;2023-04-01T10:16:55;11.40;99.90
16999;DHT22;10211;49.476;11.010;2023-04-01T10:19:59;11.20;99.90
16999;DHT22;10211;49.476;11.010;2023-04-01T10:26:10;11.40;99.90
16999;DHT22;10211;49.476;11.010;2023-04-01T10:29:06;11.60;99.90
16999;DHT22;10211;49.476;11.010;2023-04-01T10:35:08;11.90;99.90
16999;DHT22;10211;49.476;11.010;2023-04-01T10:38:22;12.00;99.90
16999;DHT22;10211;49.476;11.010;2023-04-01T10:41:24;11.60;99.90
16999;DHT22;10211;49.476;11.010;2023-04-01T10:44:12;11.00;99.90
16999;DHT22;10211;49.476;11.010;2023-04-01T10:47:07;10.70;99.90
16999;DHT22;10211;49.476;11.010;2023-04-01T10:49:58;10.40;99.90
16999;DHT22;10211;49.476;11.010;2023-04-01T10:56:00;10.50;99.90
16999;DHT22;10211;49.476;11.010;2023-04-01T11:05:07;10.80;99.90
16999;DHT22;10211;49.476;11.010;2023-04-01T11:08:11;10.90;99.90
16999;DHT22;10211;49.476;11.010;2023-04-01T11:11:01;10.80;99.90
16999;DHT22;10211;49.476;11.010;2023-04-01T11:14:03;10.90;99.90
16999;DHT22;10211;49.476;11.010;2023-04-01T11:17:15;10.90;99.90
16999;DHT22;10211;49.476;11.010;2023-04-01T11:23:08;10.70;99.90
16999;DHT22;10211;49.476;11.010;2023-04-01T11:26:02;10.60;99.90
16999;DHT22;10211;49.476;11.010;2023-04-01T11:31:44;10.40;99.90
16999;DHT22;10211;49.476;11.010;2023-04-01T11:34:27;10.50;99.90
16999;DHT22;10211;49.476;11.010;2023-04-01T11:37:06;10.60;99.90
16999;DHT22;10211;49.476;11.010;2023-04-01T11:39:40;10.50;99.90
16999;DHT22;10211;49.476;11.010;2023-04-01T11:42:20;10.50;99.90
16999;DHT22;10211;49.476;11.010;2023-04-01T11:44:57;10.40;99.90
16999;DHT22;10211;49.476;11.010;2023-04-01T11:47:47;10.50;99.90
16999;DHT22;10211;49.476;11.010;2023-04-01T11:50:22;10.50;99.90
16999;DHT22;10211;49.476;11.010;2023-04-01T11:53:04;10.60;99.90
16999;DHT22;10211;49.476;11.010;2023-04-01T11:55:44;10.70;99.90
16999;DHT22;10211;49.476;11.010;2023-04-01T11:58:45;10.80;99.90
16999;DHT22;10211;49.476;11.010;2023-04-01T12:01:40;10.70;99.90
16999;DHT22;10211;49.476;11.010;2023-04-01T12:04:38;10.70;99.90
16999;DHT22;10211;49.476;11.010;2023-04-01T12:07:18;10.80;99.90
16999;DHT22;10211;49.476;11.010;2023-04-01T12:09:52;10.90;99.90
16999;DHT22;10211;49.476;11.010;2023-04-01T12:12:27;11.00;99.90
16999;DHT22;10211;49.476;11.010;2023-04-01T12:15:04;11.20;99.90
16999;DHT22;10211;49.476;11.010;2023-04-01T12:17:38;11.60;99.90
16999;DHT22;10211;49.476;11.010;2023-04-01T12:20:25;11.80;99.90
16999;DHT22;10211;49.476;11.010;2023-04-01T12:23:01;11.90;99.90
16999;DHT22;10211;49.476;11.010;2023-04-01T12:25:55;11.70;99.90
16999;DHT22;10211;49.476;11.010;2023-04-01T12:28:32;11.60;99.90
16999;DHT22;10211;49.476;11.010;2023-04-01T12:31:13;11.70;99.90
16999;DHT22;10211;49.476;11.010;2023-04-01T12:33:56;11.60;99.90
16999;DHT22;10211;49.476;11.010;2023-04-01T12:36:38;11.40;99.90
16999;DHT22;10211;49.476;11.010;2023-04-01T12:39:32;11.40;99.90
16999;DHT22;10211;49.476;11.010;2023-04-01T12:42:07;11.20;99.90
16999;DHT22;10211;49.476;11.010;2023-04-01T12:44:49;11.10;99.90
16999;DHT22;10211;49.476;11.010;2023-04-01T12:47:27;11.10;99.90
16999;DHT22;10211;49.476;11.010;2023-04-01T12:50:16;11.10;99.90
16999;DHT22;10211;49.476;11.010;2023-04-01T12:53:01;11.20;99.90
16999;DHT22;10211;49.476;11.010;2023-04-01T12:55:38;11.40;99.90
16999;DHT22;10211;49.476;11.010;2023-04-01T13:01:23;11.90;99.90
16999;DHT22;10211;49.476;11.010;2023-04-01T13:06:57;11.90;99.90
16999;DHT22;10211;49.476;11.010;2023-04-01T13:09:36;11.80;99.90
16999;DHT22;10211;49.476;11.010;2023-04-01T13:12:29;12.00;99.90
16999;DHT22;10211;49.476;11.010;2023-04-01T13:15:28;12.20;99.90
16999;DHT22;10211;49.476;11.010;2023-04-01T13:18:06;12.10;99.90
16999;DHT22;10211;49.476;11.010;2023-04-01T13:20:44;12.10;99.90
16999;DHT22;10211;49.476;11.010;2023-04-01T13:23:24;12.00;99.90
16999;DHT22;10211;49.476;11.010;2023-04-01T13:26:07;11.60;99.90
16999;DHT22;10211;49.476;11.010;2023-04-01T13:28:39;11.60;99.90
16999;DHT22;10211;49.476;11.010;2023-04-01T13:31:09;11.70;99.90
16999;DHT22;10211;49.476;11.010;2023-04-01T13:33:45;12.00;99.90
16999;DHT22;10211;49.476;11.010;2023-04-01T13:36:20;12.20;99.90
16999;DHT22;10211;49.476;11.010;2023-04-01T13:39:15;12.40;99.90
16999;DHT22;10211;49.476;11.010;2023-04-01T13:42:11;12.40;99.90
16999;DHT22;10211;49.476;11.010;2023-04-01T13:44:43;12.30;99.90
16999;DHT22;10211;49.476;11.010;2023-04-01T13:47:29;12.20;99.90
16999;DHT22;10211;49.476;11.010;2023-04-01T13:50:32;12.30;99.90
16999;DHT22;10211;49.476;11.010;2023-04-01T13:53:16;12.40;99.90
16999;DHT22;10211;49.476;11.010;2023-04-01T13:55:54;12.40;99.90
16999;DHT22;10211;49.476;11.010;2023-04-01T13:58:38;12.40;99.90
16999;DHT22;10211;49.476;11.010;2023-04-01T14:01:13;12.20;99.90
16999;DHT22;10211;49.476;11.010;2023-04-01T14:04:03;12.10;99.90
16999;DHT22;10211;49.476;11.010;2023-04-01T14:06:49;12.10;99.90
16999;DHT22;10211;49.476;11.010;2023-04-01T14:09:35;11.90;99.90
16999;DHT22;10211;49.476;11.010;2023-04-01T14:12:11;11.70;99.90
16999;DHT22;10211;49.476;11.010;2023-04-01T14:14:55;11.70;99.90
16999;DHT22;10211;49.476;11.010;2023-04-01T14:17:46;11.60;99.90
16999;DHT22;10211;49.476;11.010;2023-04-01T14:20:27;11.40;99.90
16999;DHT22;10211;49.476;11.010;2023-04-01T14:23:13;11.30;99.90
16999;DHT22;10211;49.476;11.010;2023-04-01T14:26:07;11.20;99.90
16999;DHT22;10211;49.476;11.010;2023-04-01T14:28:42;11.10;99.90
16999;DHT22;10211;49.476;11.010;2023-04-01T14:31:30;10.90;99.90
16999;DHT22;10211;49.476;11.010;2023-04-01T14:34:09;10.80;99.90
16999;DHT22;10211;49.476;11.010;2023-04-01T14:36:50;10.70;99.90
16999;DHT22;10211;49.476;11.010;2023-04-01T14:39:34;10.70;99.90
16999;DHT22;10211;49.476;11.010;2023-04-01T14:42:23;10.70;99.90
16999;DHT22;10211;49.476;11.010;2023-04-01T14:47:53;10.70;99.90
16999;DHT22;10211;49.476;11.010;2023-04-01T14:50:22;10.70;99.90
16999;DHT22;10211;49.476;11.010;2023-04-01T14:52:59;10.70;99.90
16999;DHT22;10211;49.476;11.010;2023-04-01T14:55:48;10.70;99.90
16999;DHT22;10211;49.476;11.010;2023-04-01T14:58:17;10.60;99.90
16999;DHT22;10211;49.476;11.010;2023-04-01T15:00:54;10.70;99.90
16999;DHT22;10211;49.476;11.010;2023-04-01T15:03:26;10.80;99.90
16999;DHT22;10211;49.476;11.010;2023-04-01T15:06:00;10.90;99.90
16999;DHT22;10211;49.476;11.010;2023-04-01T15:08:37;10.90;99.90
16999;DHT22;10211;49.476;11.010;2023-04-01T15:11:21;11.00;99.90
16999;DHT22;10211;49.476;11.010;2023-04-01T15:14:17;11.10;99.90
16999;DHT22;10211;49.476;11.010;2023-04-01T15:16:55;11.20;99.90
16999;DHT22;10211;49.476;11.010;2023-04-01T15:19:31;11.80;99.90
16999;DHT22;10211;49.476;11.010;2023-04-01T15:22:26;11.40;99.90
16999;DHT22;10211;49.476;11.010;2023-04-01T15:25:14;11.40;99.90
16999;DHT22;10211;49.476;11.010;2023-04-01T15:27:48;11.40;99.90
16999;DHT22;10211;49.476;11.010;2023-04-01T15:30:27;11.30;99.90
16999;DHT22;10211;49.476;11.010;2023-04-01T15:36:16;11.20;99.90
16999;DHT22;10211;49.476;11.010;2023-04-01T15:38:50;11.00;99.90
16999;DHT22;10211;49.476;11.010;2023-04-01T15:41:23;11.10;99.90
16999;DHT22;10211;49.476;11.010;2023-04-01T15:43:51;11.00;99.90
16999;DHT22;10211;49.476;11.010;2023-04-01T15:46:30;10.90;99.90
16999;DHT22;10211;49.476;11.010;2023-04-01T15:49:09;10.90;99.90
16999;DHT22;10211;49.476;11.010;2023-04-01T15:52:02;10.90;99.90
16999;DHT22;10211;49.476;11.010;2023-04-01T15:54:57;10.90;99.90
16999;DHT22;10211;49.476;11.010;2023-04-01T15:57:32;10.90;99.90
16999;DHT22;10211;49.476;11.010;2023-04-01T16:00:23;10.80;99.90
16999;DHT22;10211;49.476;11.010;2023-04-01T16:03:06;10.80;99.90
16999;DHT22;10211;49.476;11.010;2023-04-01T16:05:41;10.70;99.90
16999;DHT22;10211;49.476;11.010;2023-04-01T16:08:45;10.60;99.90
16999;DHT22;10211;49.476;11.010;2023-04-01T16:11:19;10.50;99.90
16999;DHT22;10211;49.476;11.010;2023-04-01T16:13:55;10.40;99.90
16999;DHT22;10211;49.476;11.010;2023-04-01T16:16:33;10.30;99.90
16999;DHT22;10211;49.476;11.010;2023-04-01T16:19:19;10.30;99.90
16999;DHT22;10211;49.476;11.010;2023-04-01T16:21:52;10.30;99.90
16999;DHT22;10211;49.476;11.010;2023-04-01T16:24:24;10.30;99.90
16999;DHT22;10211;49.476;11.010;2023-04-01T16:27:02;10.30;99.90
16999;DHT22;10211;49.476;11.010;2023-04-01T16:29:36;10.40;99.90
16999;DHT22;10211;49.476;11.010;2023-04-01T16:32:18;10.30;99.90
16999;DHT22;10211;49.476;11.010;2023-04-01T16:34:56;10.30;99.90
16999;DHT22;10211;49.476;11.010;2023-04-01T16:37:31;10.20;99.90
16999;DHT22;10211;49.476;11.010;2023-04-01T16:40:12;10.20;99.90
16999;DHT22;10211;49.476;11.010;2023-04-01T16:42:46;10.10;99.90
16999;DHT22;10211;49.476;11.010;2023-04-01T16:45:23;10.10;99.90
16999;DHT22;10211;49.476;11.010;2023-04-01T16:47:54;10.00;99.90
16999;DHT22;10211;49.476;11.010;2023-04-01T16:50:24;10.00;99.90
16999;DHT22;10211;49.476;11.010;2023-04-01T16:52:59;10.00;99.90
16999;DHT22;10211;49.476;11.010;2023-04-01T16:55:43;10.00;99.90
16999;DHT22;10211;49.476;11.010;2023-04-01T16:58:20;10.00;99.90
16999;DHT22;10211;49.476;11.010;2023-04-01T17:00:48;10.00;99.90
16999;DHT22;10211;49.476;11.010;2023-04-01T17:03:19;9.90;99.90
16999;DHT22;10211;49.476;11.010;2023-04-01T17:05:57;9.90;99.90
16999;DHT22;10211;49.476;11.010;2023-04-01T17:08:34;9.80;99.90
16999;DHT22;10211;49.476;11.010;2023-04-01T17:11:10;9.80;99.90
16999;DHT22;10211;49.476;11.010;2023-04-01T17:13:46;9.80;99.90